• Join FlightAware (Why Join?)
  • Login
  • US Flag 
12:29PM EDT


 

Airport Tracker/Info


-or-


 

Live Flight TrackerFlight Track Log ✈ SWA2339 ✈ 21-Apr-2013 ✈ KBOS - KBWI

Flight Track Log - Related Links

Times and Time Zones

All times are in EDT time to prevent confusion due to time zone crossing. See the SWA2339 flight status page for this flight to view local times or setup timezone preferences in your user account.

Time Position Orientation Groundspeed Altitude Reporting Facility
EDT Latitude Longitude Course Direction KTS MPH feet Rate Location/Type
06:27AM 42.3667 -71.0167 324° Northwest 135 155 700  Level KA90
06:28AM 42.4000 -71.0500 324° Northwest 174 200 2,800 2,520 Climbing KA90
06:28AM 42.3833 -71.1167 251° West 226 260 5,300 3,720 Climbing KA90
06:30AM 42.3436 -71.2042 238° Southwest 261 300 10,500 3,420 Climbing Boston Center
06:31AM 42.3133 -71.2917 245° Southwest 279 321 12,700 3,360 Climbing Boston Center
06:32AM 42.2811 -71.4131 250° West 308 354 17,300 3,660 Climbing Boston Center
06:33AM 42.2572 -71.5342 255° West 322 371 20,100 2,700 Climbing Boston Center
06:34AM 42.2225 -71.6411 246° West 332 382 22,700 2,640 Climbing Boston Center
06:35AM 42.1900 -71.7619 250° West 338 389 25,400 2,640 Climbing Boston Center
06:36AM 42.1553 -71.8969 251° West 348 400 28,000 2,520 Climbing Boston Center
06:37AM 42.1225 -72.0175 250° West 348 400 30,500 1,980 Climbing Boston Center
06:38AM 42.0875 -72.1408 249° West 348 400 32,000 720 Climbing Boston Center
06:39AM 42.0564 -72.2639 251° West 348 400 32,000  Level Boston Center
06:40AM 42.0231 -72.3869 250° West 348 400 32,000  Level Boston Center
06:41AM 41.9897 -72.5044 249° West 348 400 32,000  Level Boston Center
06:42AM 41.9564 -72.6272 250° West 348 400 32,000  Level Boston Center
06:43AM 41.9081 -72.7331 238° Southwest 342 394 32,000  Level Boston Center
06:44AM 41.8411 -72.8247 226° Southwest 342 394 32,000  Level Boston Center
06:45AM 41.7700 -72.9244 226° Southwest 356 410 32,000  Level Boston Center
06:46AM 41.7028 -73.0156 225° Southwest 356 410 32,000  Level Boston Center
06:47AM 41.6336 -73.1067 225° Southwest 361 415 32,000  Level Boston Center
06:48AM 41.5664 -73.2031 227° Southwest 356 410 32,000  Level Boston Center
06:49AM 41.5011 -73.2883 224° Southwest 350 403 32,000  Level Boston Center
06:50AM 41.4317 -73.3814 225° Southwest 350 403 32,000  Level Boston Center
06:51AM 41.3619 -73.4744 225° Southwest 350 403 32,000  Level Boston Center
06:53AM 41.2086 -73.7056 229° Southwest 354 407 32,000  Level New York Center
06:54AM 41.1494 -73.8103 233° Southwest 359 413 32,000  Level New York Center
06:55AM 41.0886 -73.9122 232° Southwest 359 413 32,000  Level New York Center
06:56AM 41.0275 -74.0139 231° Southwest 359 413 32,000  Level New York Center
06:57AM 40.9683 -74.1156 232° Southwest 364 419 32,000  Level New York Center
06:58AM 40.9011 -74.2136 228° Southwest 364 419 32,000 -180 Level New York Center
06:59AM 40.8419 -74.3122 232° Southwest 364 419 31,700 -1,320 Descending New York Center
07:00AM 40.7803 -74.4158 232° Southwest 364 419 29,400 -2,280 Descending New York Center
07:01AM 40.7253 -74.5089 232° Southwest 354 407 27,200 -1,740 Descending New York Center
07:02AM 40.6683 -74.5986 230° Southwest 339 390 26,000 -780 Descending New York Center
07:03AM 40.5831 -74.6594 208° Southwest 333 383 25,700 -660 Descending New York Center
07:04AM 40.4975 -74.7203 208° Southwest 343 395 24,700 -1,020 Descending New York Center
07:05AM 40.4164 -74.7783 209° Southwest 348 400 23,700 -1,020 Descending New York Center
07:06AM 40.3631 -74.8758 234° Southwest 329 379 22,700 -1,020 Descending New York Center
07:07AM 40.3156 -74.9819 240° Southwest 335 386 21,700 -1,020 Descending New York Center
07:08AM 40.2681 -75.0825 238° Southwest 335 386 20,700 -960 Descending New York Center
07:09AM 40.2247 -75.1831 241° Southwest 330 380 19,800 -960 Descending New York Center
07:10AM 40.1731 -75.2856 237° Southwest 330 380 18,800 -960 Descending New York Center
07:11AM 40.1322 -75.3728 239° Southwest 330 380 18,000 -420 Descending New York Center
07:12AM 40.0681 -75.4661 228° Southwest 325 374 18,000 -120 Level New York Center
07:13AM 40.0108 -75.5408 225° Southwest 320 368 17,800 -360 Descending New York Center
07:14AM 39.9444 -75.6336 227° Southwest 325 374 17,300 -720 Descending New York Center
07:15AM 39.8953 -75.7142 232° Southwest 330 380 16,400 -480 Descending New York Center
07:17AM 39.8167 -75.8833 239° Southwest 310 357 16,100 -1,140 Descending Potomac TRACON
07:19AM 39.7167 -76.0667 235° Southwest 305 351 12,400 -1,320 Descending Potomac TRACON
07:21AM 39.6167 -76.2167 229° Southwest 278 320 11,000 -900 Descending Potomac TRACON
07:22AM 39.5500 -76.2833 218° Southwest 274 315 9,700 -1,440 Descending Potomac TRACON
07:23AM 39.5000 -76.3333 218° Southwest 272 313 8,300 -1,560 Descending Potomac TRACON
07:23AM 39.4500 -76.3833 218° Southwest 265 305 6,900 -1,620 Descending Potomac TRACON
07:24AM 39.3833 -76.4333 210° Southwest 270 311 5,300 -1,740 Descending Potomac TRACON
07:25AM 39.3167 -76.4500 191° South 282 325 3,500 -1,200 Descending Potomac TRACON
07:26AM 39.2500 -76.4833 201° Southwest 274 315 3,100 -300 Descending Potomac TRACON
07:27AM 39.1833 -76.5000 191° South 257 296 3,000  Descending Potomac TRACON
07:28AM 39.1167 -76.5333 201° Southwest 230 265 3,100 -420 Climbing Potomac TRACON
07:29AM 39.1000 -76.6000 252° West 176 203 2,200 -1,020 Descending Potomac TRACON
07:30AM 39.1167 -76.6167 322° Northwest 135 155 1,300 -900 Descending Potomac TRACON
07:31AM 39.1500 -76.6500 322° Northwest 127 146 500 -840 Descending Potomac TRACON
07:33AM 39.1667 -76.6667 270° West  Level FlightAware Approximate
07:40AM 39.1754 -76.6683 270° West  Level Estimated
07:41AM 39.1754 -76.6683 270° West  Level Estimated
07:42AM 39.1754 -76.6683 270° West  Level Estimated